Boucherville, Canada
Current Conditions -  °F | °C
As of 7:03 AM on Monday 24 Nov 2014 (Local Time) from CYHU Reporting Station
Light Rain Light Rain  
Wind Chill: 37°   Ceiling: 9100
Heat Index: 45°   Visibility: 6mi
Dew Point: 43°   Wind: 17mph
Humidity: 93%   Direction: 130°SE
Pressure: 29.54"   Gusts: NA
Location:  45.6°N, 73.45°W
Report Text: CYHU 241203Z AUTO 13015KT 6SM -RA BR FEW075 OVC091 07/06 A2954 RMK PRESFR SLP004
Loading
Personal Weather Stations






























Interactive Weather Map New forecast layout! Learn more

10-Day Weather Forecast

Advertisements
Track Severe Weather on mobile